sensor_id;sensor_type;location;lat;lon;timestamp;pressure;altitude;pressure_sealevel;temperature;humidity
76054;BME280;64752;48.870;9.082;2023-09-30T00:00:42;98801.16;;;16.06;100.00
76054;BME280;64752;48.870;9.082;2023-09-30T00:03:07;98802.41;;;15.97;100.00
76054;BME280;64752;48.870;9.082;2023-09-30T00:05:32;98806.03;;;15.94;100.00
76054;BME280;64752;48.870;9.082;2023-09-30T00:07:58;98800.56;;;15.80;100.00
76054;BME280;64752;48.870;9.082;2023-09-30T00:10:23;98806.09;;;15.72;100.00
76054;BME280;64752;48.870;9.082;2023-09-30T00:12:48;98796.16;;;15.80;100.00
76054;BME280;64752;48.870;9.082;2023-09-30T00:15:14;98786.34;;;15.86;100.00
76054;BME280;64752;48.870;9.082;2023-09-30T00:17:39;98801.34;;;15.82;100.00
76054;BME280;64752;48.870;9.082;2023-09-30T00:20:05;98792.13;;;15.73;100.00
76054;BME280;64752;48.870;9.082;2023-09-30T00:22:31;98800.16;;;15.69;100.00
76054;BME280;64752;48.870;9.082;2023-09-30T00:24:56;98797.97;;;15.58;100.00
76054;BME280;64752;48.870;9.082;2023-09-30T00:27:21;98792.09;;;15.53;100.00
76054;BME280;64752;48.870;9.082;2023-09-30T00:29:47;98791.84;;;15.59;100.00
76054;BME280;64752;48.870;9.082;2023-09-30T00:32:12;98797.31;;;15.53;100.00
76054;BME280;64752;48.870;9.082;2023-09-30T00:34:38;98809.81;;;15.46;100.00
76054;BME280;64752;48.870;9.082;2023-09-30T00:37:03;98809.22;;;15.39;100.00
76054;BME280;64752;48.870;9.082;2023-09-30T00:39:29;98806.16;;;15.30;100.00
76054;BME280;64752;48.870;9.082;2023-09-30T00:41:57;98808.41;;;15.17;100.00
76054;BME280;64752;48.870;9.082;2023-09-30T00:44:26;98805.25;;;15.09;100.00
76054;BME280;64752;48.870;9.082;2023-09-30T00:46:53;98805.19;;;14.88;100.00
76054;BME280;64752;48.870;9.082;2023-09-30T00:49:21;98805.63;;;14.77;100.00
76054;BME280;64752;48.870;9.082;2023-09-30T00:51:48;98810.59;;;14.61;100.00
76054;BME280;64752;48.870;9.082;2023-09-30T00:54:15;98815.69;;;14.41;100.00
76054;BME280;64752;48.870;9.082;2023-09-30T00:56:44;98799.53;;;14.31;100.00
76054;BME280;64752;48.870;9.082;2023-09-30T00:59:12;98799.66;;;14.28;100.00
76054;BME280;64752;48.870;9.082;2023-09-30T01:01:37;98800.84;;;14.19;100.00
76054;BME280;64752;48.870;9.082;2023-09-30T01:04:03;98802.03;;;14.11;100.00
76054;BME280;64752;48.870;9.082;2023-09-30T01:06:29;98808.09;;;14.11;100.00
76054;BME280;64752;48.870;9.082;2023-09-30T01:08:54;98814.03;;;13.91;100.00
76054;BME280;64752;48.870;9.082;2023-09-30T01:11:21;98810.53;;;13.92;100.00
76054;BME280;64752;48.870;9.082;2023-09-30T01:13:47;98815.22;;;13.82;100.00
76054;BME280;64752;48.870;9.082;2023-09-30T01:16:12;98814.44;;;13.80;100.00
76054;BME280;64752;48.870;9.082;2023-09-30T01:18:39;98806.19;;;13.67;100.00
76054;BME280;64752;48.870;9.082;2023-09-30T01:21:08;98807.63;;;13.75;100.00
76054;BME280;64752;48.870;9.082;2023-09-30T01:23:34;98797.53;;;13.91;100.00
76054;BME280;64752;48.870;9.082;2023-09-30T01:26:07;98801.75;;;14.18;100.00
76054;BME280;64752;48.870;9.082;2023-09-30T01:28:34;98794.50;;;14.03;100.00
76054;BME280;64752;48.870;9.082;2023-09-30T01:31:00;98806.34;;;14.12;100.00
76054;BME280;64752;48.870;9.082;2023-09-30T01:33:26;98808.22;;;14.08;100.00
76054;BME280;64752;48.870;9.082;2023-09-30T01:35:52;98813.19;;;14.14;100.00
76054;BME280;64752;48.870;9.082;2023-09-30T01:38:17;98810.53;;;14.39;100.00
76054;BME280;64752;48.870;9.082;2023-09-30T01:40:43;98817.72;;;14.58;100.00
76054;BME280;64752;48.870;9.082;2023-09-30T01:43:09;98812.63;;;14.53;100.00
76054;BME280;64752;48.870;9.082;2023-09-30T01:45:34;98816.88;;;14.56;100.00
76054;BME280;64752;48.870;9.082;2023-09-30T01:48:01;98816.72;;;14.60;100.00
76054;BME280;64752;48.870;9.082;2023-09-30T01:50:27;98819.66;;;14.75;100.00
76054;BME280;64752;48.870;9.082;2023-09-30T01:52:53;98821.28;;;14.77;100.00
76054;BME280;64752;48.870;9.082;2023-09-30T01:55:18;98811.09;;;14.71;100.00
76054;BME280;64752;48.870;9.082;2023-09-30T01:57:43;98807.69;;;14.69;100.00
76054;BME280;64752;48.870;9.082;2023-09-30T02:00:09;98810.72;;;14.58;100.00
76054;BME280;64752;48.870;9.082;2023-09-30T02:02:35;98809.94;;;14.55;100.00
76054;BME280;64752;48.870;9.082;2023-09-30T02:05:02;98816.00;;;14.55;100.00
76054;BME280;64752;48.870;9.082;2023-09-30T02:07:28;98806.66;;;14.50;100.00
76054;BME280;64752;48.870;9.082;2023-09-30T02:09:54;98812.03;;;14.46;100.00
76054;BME280;64752;48.870;9.082;2023-09-30T02:12:19;98805.75;;;14.51;100.00
76054;BME280;64752;48.870;9.082;2023-09-30T02:14:44;98813.53;;;14.52;100.00
76054;BME280;64752;48.870;9.082;2023-09-30T02:17:11;98827.13;;;14.62;100.00
76054;BME280;64752;48.870;9.082;2023-09-30T02:19:36;98822.63;;;14.65;100.00
76054;BME280;64752;48.870;9.082;2023-09-30T02:22:02;98824.19;;;14.70;100.00
76054;BME280;64752;48.870;9.082;2023-09-30T02:24:27;98824.19;;;14.70;100.00
76054;BME280;64752;48.870;9.082;2023-09-30T02:26:53;98826.03;;;14.68;100.00
76054;BME280;64752;48.870;9.082;2023-09-30T02:29:18;98821.91;;;14.62;100.00
76054;BME280;64752;48.870;9.082;2023-09-30T02:31:43;98825.19;;;14.67;100.00
76054;BME280;64752;48.870;9.082;2023-09-30T02:34:09;98822.28;;;14.75;100.00
76054;BME280;64752;48.870;9.082;2023-09-30T02:36:34;98828.47;;;14.72;100.00
76054;BME280;64752;48.870;9.082;2023-09-30T02:39:05;98823.25;;;14.72;100.00
76054;BME280;64752;48.870;9.082;2023-09-30T02:41:31;98823.31;;;14.71;100.00
76054;BME280;64752;48.870;9.082;2023-09-30T02:43:56;98827.50;;;14.75;100.00
76054;BME280;64752;48.870;9.082;2023-09-30T02:46:21;98829.25;;;14.74;100.00
76054;BME280;64752;48.870;9.082;2023-09-30T02:48:47;98823.84;;;14.79;100.00
76054;BME280;64752;48.870;9.082;2023-09-30T02:51:12;98819.41;;;14.81;100.00
76054;BME280;64752;48.870;9.082;2023-09-30T02:53:38;98818.47;;;14.83;100.00
76054;BME280;64752;48.870;9.082;2023-09-30T02:56:03;98821.13;;;14.82;100.00
76054;BME280;64752;48.870;9.082;2023-09-30T02:58:30;98812.31;;;14.84;100.00
76054;BME280;64752;48.870;9.082;2023-09-30T03:00:55;98818.25;;;14.88;100.00
76054;BME280;64752;48.870;9.082;2023-09-30T03:03:21;98827.06;;;14.86;100.00
76054;BME280;64752;48.870;9.082;2023-09-30T03:05:47;98824.28;;;14.90;100.00
76054;BME280;64752;48.870;9.082;2023-09-30T03:08:15;98828.59;;;14.91;100.00
76054;BME280;64752;48.870;9.082;2023-09-30T03:10:40;98838.78;;;14.97;100.00
76054;BME280;64752;48.870;9.082;2023-09-30T03:13:06;98843.22;;;14.95;100.00
76054;BME280;64752;48.870;9.082;2023-09-30T03:15:33;98848.41;;;14.97;100.00
76054;BME280;64752;48.870;9.082;2023-09-30T03:17:58;98858.06;;;14.95;100.00
76054;BME280;64752;48.870;9.082;2023-09-30T03:20:25;98854.47;;;14.97;100.00
76054;BME280;64752;48.870;9.082;2023-09-30T03:22:51;98860.72;;;14.93;100.00
76054;BME280;64752;48.870;9.082;2023-09-30T03:25:18;98847.91;;;14.87;100.00
76054;BME280;64752;48.870;9.082;2023-09-30T03:27:47;98846.19;;;14.86;100.00
76054;BME280;64752;48.870;9.082;2023-09-30T03:30:14;98845.00;;;14.95;100.00
76054;BME280;64752;48.870;9.082;2023-09-30T03:32:40;98845.22;;;14.89;100.00
76054;BME280;64752;48.870;9.082;2023-09-30T03:35:08;98845.31;;;14.87;100.00
76054;BME280;64752;48.870;9.082;2023-09-30T03:37:44;98836.59;;;14.87;100.00
76054;BME280;64752;48.870;9.082;2023-09-30T03:40:11;98833.38;;;14.80;100.00
76054;BME280;64752;48.870;9.082;2023-09-30T03:42:43;98823.06;;;14.77;100.00
76054;BME280;64752;48.870;9.082;2023-09-30T03:45:09;98821.50;;;14.95;100.00
76054;BME280;64752;48.870;9.082;2023-09-30T03:47:36;98831.09;;;14.94;100.00
76054;BME280;64752;48.870;9.082;2023-09-30T03:50:02;98829.81;;;15.04;100.00
76054;BME280;64752;48.870;9.082;2023-09-30T03:52:29;98834.72;;;14.90;100.00
76054;BME280;64752;48.870;9.082;2023-09-30T03:54:54;98834.50;;;14.96;100.00
76054;BME280;64752;48.870;9.082;2023-09-30T03:57:19;98832.31;;;14.86;100.00
76054;BME280;64752;48.870;9.082;2023-09-30T03:59:45;98829.25;;;14.74;100.00
76054;BME280;64752;48.870;9.082;2023-09-30T04:02:12;98829.63;;;14.65;100.00
76054;BME280;64752;48.870;9.082;2023-09-30T04:04:37;98832.88;;;14.70;100.00
76054;BME280;64752;48.870;9.082;2023-09-30T04:07:02;98843.09;;;14.76;100.00
76054;BME280;64752;48.870;9.082;2023-09-30T04:09:31;98840.78;;;14.69;100.00
76054;BME280;64752;48.870;9.082;2023-09-30T04:11:57;98837.81;;;14.78;100.00
76054;BME280;64752;48.870;9.082;2023-09-30T04:14:22;98844.84;;;14.76;100.00
76054;BME280;64752;48.870;9.082;2023-09-30T04:16:48;98851.16;;;14.70;100.00
76054;BME280;64752;48.870;9.082;2023-09-30T04:19:13;98847.94;;;14.63;100.00
76054;BME280;64752;48.870;9.082;2023-09-30T04:21:39;98840.31;;;14.57;100.00
76054;BME280;64752;48.870;9.082;2023-09-30T04:24:04;98835.25;;;14.53;100.00
76054;BME280;64752;48.870;9.082;2023-09-30T04:26:32;98839.78;;;14.48;100.00
76054;BME280;64752;48.870;9.082;2023-09-30T04:28:57;98847.28;;;14.57;100.00
76054;BME280;64752;48.870;9.082;2023-09-30T04:31:23;98849.75;;;14.61;100.00
76054;BME280;64752;48.870;9.082;2023-09-30T04:33:49;98847.75;;;14.68;100.00
76054;BME280;64752;48.870;9.082;2023-09-30T04:36:16;98858.19;;;14.68;100.00
76054;BME280;64752;48.870;9.082;2023-09-30T04:38:42;98861.88;;;14.62;100.00
76054;BME280;64752;48.870;9.082;2023-09-30T04:41:08;98865.59;;;14.55;100.00
76054;BME280;64752;48.870;9.082;2023-09-30T04:43:34;98870.78;;;14.57;100.00
76054;BME280;64752;48.870;9.082;2023-09-30T04:46:00;98867.66;;;14.47;100.00
76054;BME280;64752;48.870;9.082;2023-09-30T04:48:26;98856.31;;;14.48;100.00
76054;BME280;64752;48.870;9.082;2023-09-30T04:50:52;98862.50;;;14.45;100.00
76054;BME280;64752;48.870;9.082;2023-09-30T04:53:18;98870.63;;;14.38;100.00
76054;BME280;64752;48.870;9.082;2023-09-30T04:55:44;98878.38;;;14.39;100.00
76054;BME280;64752;48.870;9.082;2023-09-30T04:58:10;98875.88;;;14.36;100.00
76054;BME280;64752;48.870;9.082;2023-09-30T05:00:36;98882.72;;;14.39;100.00
76054;BME280;64752;48.870;9.082;2023-09-30T05:03:01;98887.00;;;14.41;100.00
76054;BME280;64752;48.870;9.082;2023-09-30T05:05:27;98889.78;;;14.37;100.00
76054;BME280;64752;48.870;9.082;2023-09-30T05:07:54;98888.19;;;14.33;100.00
76054;BME280;64752;48.870;9.082;2023-09-30T05:10:19;98887.63;;;14.24;100.00
76054;BME280;64752;48.870;9.082;2023-09-30T05:12:44;98897.41;;;14.18;100.00
76054;BME280;64752;48.870;9.082;2023-09-30T05:15:14;98897.69;;;14.10;100.00
76054;BME280;64752;48.870;9.082;2023-09-30T05:17:45;98894.91;;;14.15;100.00
76054;BME280;64752;48.870;9.082;2023-09-30T05:20:11;98889.06;;;14.08;100.00
76054;BME280;64752;48.870;9.082;2023-09-30T05:22:38;98883.25;;;14.00;100.00
76054;BME280;64752;48.870;9.082;2023-09-30T05:25:06;98886.94;;;13.94;100.00
76054;BME280;64752;48.870;9.082;2023-09-30T05:27:31;98877.72;;;13.84;100.00
76054;BME280;64752;48.870;9.082;2023-09-30T05:29:57;98873.94;;;13.67;100.00
76054;BME280;64752;48.870;9.082;2023-09-30T05:32:22;98868.91;;;13.61;100.00
76054;BME280;64752;48.870;9.082;2023-09-30T05:34:48;98869.03;;;13.58;100.00
76054;BME280;64752;48.870;9.082;2023-09-30T05:37:14;98872.31;;;13.63;100.00
76054;BME280;64752;48.870;9.082;2023-09-30T05:39:39;98863.53;;;13.67;100.00
76054;BME280;64752;48.870;9.082;2023-09-30T05:42:05;98864.47;;;13.65;100.00
76054;BME280;64752;48.870;9.082;2023-09-30T05:44:32;98877.19;;;13.74;100.00
76054;BME280;64752;48.870;9.082;2023-09-30T05:46:57;98887.41;;;13.80;100.00
76054;BME280;64752;48.870;9.082;2023-09-30T05:49:25;98893.06;;;13.93;100.00
76054;BME280;64752;48.870;9.082;2023-09-30T05:51:50;98895.19;;;14.07;100.00
76054;BME280;64752;48.870;9.082;2023-09-30T05:54:16;98913.03;;;14.19;100.00
76054;BME280;64752;48.870;9.082;2023-09-30T05:56:41;98900.66;;;14.24;100.00
76054;BME280;64752;48.870;9.082;2023-09-30T05:59:08;98902.88;;;14.35;100.00
76054;BME280;64752;48.870;9.082;2023-09-30T06:01:34;98888.03;;;14.37;100.00
76054;BME280;64752;48.870;9.082;2023-09-30T06:04:01;98886.09;;;14.42;100.00
76054;BME280;64752;48.870;9.082;2023-09-30T06:06:27;98898.25;;;14.43;100.00
76054;BME280;64752;48.870;9.082;2023-09-30T06:08:56;98907.69;;;14.46;100.00
76054;BME280;64752;48.870;9.082;2023-09-30T06:11:25;98932.91;;;14.47;100.00
76054;BME280;64752;48.870;9.082;2023-09-30T06:13:57;98934.41;;;14.54;100.00
76054;BME280;64752;48.870;9.082;2023-09-30T06:16:26;98930.34;;;14.71;100.00
76054;BME280;64752;48.870;9.082;2023-09-30T06:18:53;98941.84;;;14.89;100.00
76054;BME280;64752;48.870;9.082;2023-09-30T06:21:21;98946.63;;;15.01;100.00
76054;BME280;64752;48.870;9.082;2023-09-30T06:23:47;98940.72;;;15.18;100.00
76054;BME280;64752;48.870;9.082;2023-09-30T06:26:13;98935.16;;;15.27;100.00
76054;BME280;64752;48.870;9.082;2023-09-30T06:28:40;98940.50;;;15.24;100.00
76054;BME280;64752;48.870;9.082;2023-09-30T06:31:09;98943.00;;;15.27;100.00
76054;BME280;64752;48.870;9.082;2023-09-30T06:33:36;98933.88;;;15.37;100.00
76054;BME280;64752;48.870;9.082;2023-09-30T06:36:08;98934.78;;;15.36;100.00
76054;BME280;64752;48.870;9.082;2023-09-30T06:38:33;98940.53;;;15.46;100.00
76054;BME280;64752;48.870;9.082;2023-09-30T06:40:59;98936.16;;;15.67;100.00
76054;BME280;64752;48.870;9.082;2023-09-30T06:43:25;98950.44;;;16.03;100.00
76054;BME280;64752;48.870;9.082;2023-09-30T06:45:50;98947.06;;;16.61;100.00
76054;BME280;64752;48.870;9.082;2023-09-30T06:48:16;98950.25;;;16.88;98.09
76054;BME280;64752;48.870;9.082;2023-09-30T06:50:46;98961.09;;;16.99;97.39
76054;BME280;64752;48.870;9.082;2023-09-30T06:53:14;98962.91;;;17.16;94.04
76054;BME280;64752;48.870;9.082;2023-09-30T06:55:41;98970.66;;;17.00;96.78
76054;BME280;64752;48.870;9.082;2023-09-30T06:58:08;98960.72;;;17.26;93.40
76054;BME280;64752;48.870;9.082;2023-09-30T07:00:34;98960.16;;;17.19;93.48
76054;BME280;64752;48.870;9.082;2023-09-30T07:03:00;98968.16;;;17.35;93.57
76054;BME280;64752;48.870;9.082;2023-09-30T07:05:26;98959.50;;;18.23;88.45
76054;BME280;64752;48.870;9.082;2023-09-30T07:07:53;98962.16;;;18.90;85.40
76054;BME280;64752;48.870;9.082;2023-09-30T07:10:21;98951.59;;;19.23;80.80
76054;BME280;64752;48.870;9.082;2023-09-30T07:12:47;98950.75;;;20.15;76.80
76054;BME280;64752;48.870;9.082;2023-09-30T07:15:12;98956.41;;;20.68;74.44
76054;BME280;64752;48.870;9.082;2023-09-30T07:17:39;98958.25;;;21.09;71.08
76054;BME280;64752;48.870;9.082;2023-09-30T07:20:06;98959.31;;;20.92;70.72
76054;BME280;64752;48.870;9.082;2023-09-30T07:22:33;98965.25;;;21.79;67.44
76054;BME280;64752;48.870;9.082;2023-09-30T07:24:59;98974.19;;;21.64;67.28
76054;BME280;64752;48.870;9.082;2023-09-30T07:27:24;98980.81;;;22.37;64.49
76054;BME280;64752;48.870;9.082;2023-09-30T07:29:51;98989.81;;;22.47;64.26
76054;BME280;64752;48.870;9.082;2023-09-30T07:32:16;98981.75;;;23.00;61.33
76054;BME280;64752;48.870;9.082;2023-09-30T07:34:42;98975.34;;;22.12;63.07
76054;BME280;64752;48.870;9.082;2023-09-30T07:37:07;98974.91;;;23.34;60.42
76054;BME280;64752;48.870;9.082;2023-09-30T07:39:33;98982.25;;;23.92;58.78
76054;BME280;64752;48.870;9.082;2023-09-30T07:42:00;98979.75;;;23.77;58.69
76054;BME280;64752;48.870;9.082;2023-09-30T07:44:26;98990.53;;;25.03;53.47
76054;BME280;64752;48.870;9.082;2023-09-30T07:46:51;98995.00;;;23.50;57.31
76054;BME280;64752;48.870;9.082;2023-09-30T07:49:17;98997.56;;;24.35;56.11
76054;BME280;64752;48.870;9.082;2023-09-30T07:51:42;99001.75;;;23.78;56.18
76054;BME280;64752;48.870;9.082;2023-09-30T07:54:08;99012.16;;;24.52;55.16
76054;BME280;64752;48.870;9.082;2023-09-30T07:56:33;99009.59;;;24.97;52.38
76054;BME280;64752;48.870;9.082;2023-09-30T07:58:59;99003.19;;;26.00;50.01
76054;BME280;64752;48.870;9.082;2023-09-30T08:01:24;99006.19;;;25.63;51.53
76054;BME280;64752;48.870;9.082;2023-09-30T08:03:50;98996.34;;;25.08;52.37
76054;BME280;64752;48.870;9.082;2023-09-30T08:06:15;98993.19;;;25.14;52.29
76054;BME280;64752;48.870;9.082;2023-09-30T08:08:41;98989.81;;;25.46;51.46
76054;BME280;64752;48.870;9.082;2023-09-30T08:11:06;98985.78;;;24.03;54.42
76054;BME280;64752;48.870;9.082;2023-09-30T08:13:35;98982.31;;;24.14;53.91
76054;BME280;64752;48.870;9.082;2023-09-30T08:16:00;98986.94;;;24.35;53.48
76054;BME280;64752;48.870;9.082;2023-09-30T08:18:26;98987.28;;;24.88;51.62
76054;BME280;64752;48.870;9.082;2023-09-30T08:20:51;98991.97;;;26.59;48.02
76054;BME280;64752;48.870;9.082;2023-09-30T08:23:17;98998.41;;;26.78;47.33
76054;BME280;64752;48.870;9.082;2023-09-30T08:25:43;98984.50;;;26.74;46.80
76054;BME280;64752;48.870;9.082;2023-09-30T08:28:09;98987.06;;;26.54;47.01
76054;BME280;64752;48.870;9.082;2023-09-30T08:30:38;98989.75;;;28.25;43.90
76054;BME280;64752;48.870;9.082;2023-09-30T08:33:03;98998.22;;;28.87;43.13
76054;BME280;64752;48.870;9.082;2023-09-30T08:35:30;98994.31;;;26.95;46.06
76054;BME280;64752;48.870;9.082;2023-09-30T08:37:56;98985.09;;;27.59;44.92
76054;BME280;64752;48.870;9.082;2023-09-30T08:40:23;98975.31;;;28.08;44.54
76054;BME280;64752;48.870;9.082;2023-09-30T08:42:52;98969.97;;;27.69;44.58
76054;BME280;64752;48.870;9.082;2023-09-30T08:45:18;98976.38;;;27.57;44.69
76054;BME280;64752;48.870;9.082;2023-09-30T08:47:43;98984.03;;;28.87;41.91
76054;BME280;64752;48.870;9.082;2023-09-30T08:50:09;98987.63;;;28.48;42.67
76054;BME280;64752;48.870;9.082;2023-09-30T08:52:37;98990.81;;;29.09;42.33
76054;BME280;64752;48.870;9.082;2023-09-30T08:55:03;98978.00;;;27.98;42.51
76054;BME280;64752;48.870;9.082;2023-09-30T08:57:29;98972.19;;;28.42;42.28
76054;BME280;64752;48.870;9.082;2023-09-30T08:59:55;98976.25;;;27.39;44.14
76054;BME280;64752;48.870;9.082;2023-09-30T09:02:21;98964.09;;;27.15;45.57
76054;BME280;64752;48.870;9.082;2023-09-30T09:04:47;98970.81;;;25.51;48.57
76054;BME280;64752;48.870;9.082;2023-09-30T09:07:12;98969.97;;;24.02;52.24
76054;BME280;64752;48.870;9.082;2023-09-30T09:09:38;98977.78;;;24.39;52.13
76054;BME280;64752;48.870;9.082;2023-09-30T09:12:04;98988.00;;;23.48;54.62
76054;BME280;64752;48.870;9.082;2023-09-30T09:14:39;98991.91;;;22.02;58.28
76054;BME280;64752;48.870;9.082;2023-09-30T09:17:06;98996.75;;;23.25;55.60
76054;BME280;64752;48.870;9.082;2023-09-30T09:19:33;98992.25;;;22.37;57.63
76054;BME280;64752;48.870;9.082;2023-09-30T09:22:02;98991.06;;;23.18;57.45
76054;BME280;64752;48.870;9.082;2023-09-30T09:24:30;98997.88;;;25.45;49.84
76054;BME280;64752;48.870;9.082;2023-09-30T09:29:35;99004.38;;;26.49;45.71
76054;BME280;64752;48.870;9.082;2023-09-30T09:32:15;98996.31;;;26.81;46.44
76054;BME280;64752;48.870;9.082;2023-09-30T09:34:42;98979.94;;;27.86;44.21
76054;BME280;64752;48.870;9.082;2023-09-30T09:37:16;98986.28;;;28.91;40.91
76054;BME280;64752;48.870;9.082;2023-09-30T09:42:24;98980.66;;;29.22;41.08
76054;BME280;64752;48.870;9.082;2023-09-30T09:44:50;98983.66;;;29.37;39.93
76054;BME280;64752;48.870;9.082;2023-09-30T09:47:18;98975.47;;;29.84;38.22
76054;BME280;64752;48.870;9.082;2023-09-30T09:49:45;98976.78;;;29.98;38.22
76054;BME280;64752;48.870;9.082;2023-09-30T09:52:11;98968.53;;;27.36;43.31
76054;BME280;64752;48.870;9.082;2023-09-30T09:54:37;98986.72;;;30.06;38.62
76054;BME280;64752;48.870;9.082;2023-09-30T09:57:04;98977.78;;;30.67;36.71
76054;BME280;64752;48.870;9.082;2023-09-30T09:59:32;98976.47;;;29.83;36.87
76054;BME280;64752;48.870;9.082;2023-09-30T10:01:58;98977.88;;;29.04;38.64
76054;BME280;64752;48.870;9.082;2023-09-30T10:04:24;98974.84;;;27.64;41.90
76054;BME280;64752;48.870;9.082;2023-09-30T10:06:52;98982.06;;;29.44;38.07
76054;BME280;64752;48.870;9.082;2023-09-30T10:09:18;98965.31;;;29.24;38.71
76054;BME280;64752;48.870;9.082;2023-09-30T10:11:45;98961.84;;;31.26;35.78
76054;BME280;64752;48.870;9.082;2023-09-30T10:14:29;98962.06;;;29.66;38.15
76054;BME280;64752;48.870;9.082;2023-09-30T10:16:55;98953.44;;;31.97;34.46
76054;BME280;64752;48.870;9.082;2023-09-30T10:19:21;98956.53;;;33.53;32.32
76054;BME280;64752;48.870;9.082;2023-09-30T10:24:41;98955.06;;;33.11;32.33
76054;BME280;64752;48.870;9.082;2023-09-30T10:40:47;98944.31;;;31.48;34.26
76054;BME280;64752;48.870;9.082;2023-09-30T10:43:32;98935.56;;;29.09;38.41
76054;BME280;64752;48.870;9.082;2023-09-30T10:46:01;98928.50;;;28.43;40.09
76054;BME280;64752;48.870;9.082;2023-09-30T10:51:09;98930.16;;;30.01;37.31
76054;BME280;64752;48.870;9.082;2023-09-30T10:53:45;98928.53;;;30.60;36.30
76054;BME280;64752;48.870;9.082;2023-09-30T10:56:11;98926.47;;;29.66;37.86
76054;BME280;64752;48.870;9.082;2023-09-30T11:01:05;98925.38;;;26.70;42.70
76054;BME280;64752;48.870;9.082;2023-09-30T11:03:30;98924.09;;;26.65;43.95
76054;BME280;64752;48.870;9.082;2023-09-30T11:05:56;98917.94;;;26.12;44.36
76054;BME280;64752;48.870;9.082;2023-09-30T11:08:21;98915.75;;;26.69;43.56
76054;BME280;64752;48.870;9.082;2023-09-30T11:10:50;98909.22;;;26.31;43.13
76054;BME280;64752;48.870;9.082;2023-09-30T11:13:20;98898.22;;;25.94;44.92
76054;BME280;64752;48.870;9.082;2023-09-30T11:15:46;98901.44;;;26.19;42.94
76054;BME280;64752;48.870;9.082;2023-09-30T11:18:18;98909.16;;;27.24;40.63
76054;BME280;64752;48.870;9.082;2023-09-30T11:20:44;98900.28;;;29.15;36.98
76054;BME280;64752;48.870;9.082;2023-09-30T11:23:10;98902.69;;;30.43;35.51
76054;BME280;64752;48.870;9.082;2023-09-30T11:25:37;98903.75;;;28.60;37.92
76054;BME280;64752;48.870;9.082;2023-09-30T11:28:17;98903.09;;;28.76;37.85
76054;BME280;64752;48.870;9.082;2023-09-30T11:31:00;98910.19;;;29.23;37.78
76054;BME280;64752;48.870;9.082;2023-09-30T11:33:31;98901.16;;;30.66;34.83
76054;BME280;64752;48.870;9.082;2023-09-30T11:38:23;98903.47;;;32.12;32.31
76054;BME280;64752;48.870;9.082;2023-09-30T11:41:01;98906.75;;;33.57;30.12
76054;BME280;64752;48.870;9.082;2023-09-30T11:43:31;98905.22;;;31.29;34.13
76054;BME280;64752;48.870;9.082;2023-09-30T11:46:10;98896.22;;;29.83;35.01
76054;BME280;64752;48.870;9.082;2023-09-30T11:48:56;98884.09;;;31.26;33.34
76054;BME280;64752;48.870;9.082;2023-09-30T11:51:23;98878.31;;;31.64;32.46
76054;BME280;64752;48.870;9.082;2023-09-30T11:53:50;98891.97;;;31.28;32.18
76054;BME280;64752;48.870;9.082;2023-09-30T11:56:23;98887.94;;;29.50;34.99
76054;BME280;64752;48.870;9.082;2023-09-30T11:58:54;98893.22;;;28.87;36.49
76054;BME280;64752;48.870;9.082;2023-09-30T12:01:19;98905.13;;;30.10;34.31
76054;BME280;64752;48.870;9.082;2023-09-30T12:03:47;98903.66;;;30.33;34.50
76054;BME280;64752;48.870;9.082;2023-09-30T12:06:13;98900.19;;;30.41;33.10
76054;BME280;64752;48.870;9.082;2023-09-30T12:08:39;98906.75;;;30.89;32.16
76054;BME280;64752;48.870;9.082;2023-09-30T12:11:04;98895.91;;;30.91;32.60
76054;BME280;64752;48.870;9.082;2023-09-30T12:13:31;98898.09;;;30.09;33.66
76054;BME280;64752;48.870;9.082;2023-09-30T12:15:56;98896.84;;;30.47;33.38
76054;BME280;64752;48.870;9.082;2023-09-30T12:18:22;98894.91;;;30.92;32.97
76054;BME280;64752;48.870;9.082;2023-09-30T12:20:52;98889.88;;;30.28;32.06
76054;BME280;64752;48.870;9.082;2023-09-30T12:23:18;98895.41;;;29.83;33.52
76054;BME280;64752;48.870;9.082;2023-09-30T12:25:43;98895.78;;;29.88;32.10
76054;BME280;64752;48.870;9.082;2023-09-30T12:28:09;98879.75;;;27.94;35.53
76054;BME280;64752;48.870;9.082;2023-09-30T12:30:34;98883.78;;;29.74;33.58
76054;BME280;64752;48.870;9.082;2023-09-30T12:33:00;98883.16;;;28.98;34.92
76054;BME280;64752;48.870;9.082;2023-09-30T12:35:26;98878.25;;;26.92;38.28
76054;BME280;64752;48.870;9.082;2023-09-30T12:37:51;98865.13;;;25.87;42.18
76054;BME280;64752;48.870;9.082;2023-09-30T12:40:16;98874.28;;;24.86;43.99
76054;BME280;64752;48.870;9.082;2023-09-30T12:42:43;98874.53;;;24.49;44.96
76054;BME280;64752;48.870;9.082;2023-09-30T12:45:10;98878.88;;;24.84;44.18
76054;BME280;64752;48.870;9.082;2023-09-30T12:47:35;98872.19;;;26.19;41.25
76054;BME280;64752;48.870;9.082;2023-09-30T12:50:01;98871.84;;;27.24;38.97
76054;BME280;64752;48.870;9.082;2023-09-30T12:52:26;98878.06;;;28.02;38.10
76054;BME280;64752;48.870;9.082;2023-09-30T12:54:52;98874.38;;;27.25;39.02
76054;BME280;64752;48.870;9.082;2023-09-30T12:57:17;98881.25;;;27.18;39.72
76054;BME280;64752;48.870;9.082;2023-09-30T12:59:43;98885.22;;;28.59;37.20
76054;BME280;64752;48.870;9.082;2023-09-30T13:02:12;98895.06;;;27.92;38.40
76054;BME280;64752;48.870;9.082;2023-09-30T13:04:37;98879.13;;;28.29;37.68
76054;BME280;64752;48.870;9.082;2023-09-30T13:07:08;98880.22;;;26.90;40.11
76054;BME280;64752;48.870;9.082;2023-09-30T13:09:33;98871.34;;;27.59;38.89
76054;BME280;64752;48.870;9.082;2023-09-30T13:11:58;98862.22;;;27.62;39.34
76054;BME280;64752;48.870;9.082;2023-09-30T13:14:25;98858.78;;;28.66;36.79
76054;BME280;64752;48.870;9.082;2023-09-30T13:16:53;98855.16;;;28.84;36.53
76054;BME280;64752;48.870;9.082;2023-09-30T13:19:19;98844.16;;;27.36;38.79
76054;BME280;64752;48.870;9.082;2023-09-30T13:21:47;98841.09;;;28.17;37.20